• Join FlightAware (Why Join?)
  • Login
  • US Flag 
01:04AM EDT


 

Airport Tracker/Info


-or-


 

Live Flight TrackerFlight Track Log ✈ SWA3206 ✈ 12-May-2013 ✈ KSAN - KPHX

Flight Track Log - Related Links

Times and Time Zones

All times are in EDT time to prevent confusion due to time zone crossing. See the SWA3206 flight status page for this flight to view local times or setup timezone preferences in your user account.

Time Position Orientation Groundspeed Altitude Reporting Facility
EDT Latitude Longitude Course Direction KTS MPH feet Rate Location/Type
07:03PM 32.7333 -117.2167 277° West 157 181 1,300  Level Southern California TRACON
07:03PM 32.7347 -117.2303 277° West 185 213 1,600 1,740 Climbing Los Angeles Center
07:04PM 32.7250 -117.2981 260° West 201 231 3,800 2,400 Climbing Los Angeles Center
07:05PM 32.6658 -117.3047 185° South 239 275 6,600 3,120 Climbing Los Angeles Center
07:06PM 32.6564 -117.2183 97° East 277 319 10,300 3,360 Climbing Los Angeles Center
07:07PM 32.6492 -117.0947 94° East 312 359 13,600 3,300 Climbing Los Angeles Center
07:09PM 32.6419 -116.9792 94° East 344 396 17,200 3,300 Climbing Los Angeles Center
07:10PM 32.6358 -116.8606 93° East 357 411 20,500 2,820 Climbing Los Angeles Center
07:11PM 32.6317 -116.7394 92° East 365 420 23,100 2,580 Climbing Los Angeles Center
07:12PM 32.6458 -116.6119 82° East 390 449 25,900 1,860 Climbing Los Angeles Center
07:13PM 32.6600 -116.4653 83° East 378 435 27,000 480 Climbing Los Angeles Center
07:14PM 32.6706 -116.3450 84° East 373 429 27,000  Level Los Angeles Center
07:15PM 32.6833 -116.2258 83° East 371 427 27,000  Level Los Angeles Center
07:16PM 32.6942 -116.1056 84° East 371 427 27,000  Level Los Angeles Center
07:17PM 32.7083 -115.9614 83° East 370 426 27,000  Level Los Angeles Center
07:18PM 32.7192 -115.8403 84° East 370 426 27,000  Level Los Angeles Center
07:19PM 32.7303 -115.7178 84° East 374 430 27,000  Level Los Angeles Center
07:20PM 32.7419 -115.5947 84° East 377 434 27,000  Level Los Angeles Center
07:21PM 32.7506 -115.4725 85° East 374 430 27,000  Level Los Angeles Center
07:22PM 32.7533 -115.3497 88° East 373 429 27,000  Level Los Angeles Center
07:23PM 32.7581 -115.2031 88° East 371 427 27,000  Level Los Angeles Center
07:24PM 32.7614 -115.0814 88° East 369 425 27,000  Level Los Angeles Center
07:25PM 32.7633 -114.9592 89° East 369 425 27,000  Level Los Angeles Center
07:26PM 32.7644 -114.8361 89° East 370 426 27,000  Level Los Angeles Center
07:27PM 32.7694 -114.7153 87° East 366 421 27,000  Level Los Angeles Center
07:28PM 32.7714 -114.5686 89° East 368 423 27,000  Level Los Angeles Center
07:29PM 32.7719 -114.4475 90° East 365 420 27,000  Level Los Angeles Center
07:30PM 32.7736 -114.3275 89° East 362 417 27,000  Level Los Angeles Center
07:31PM 32.7753 -114.2078 89° East 361 415 27,000 -840 Level Los Angeles Center
07:32PM 32.7761 -114.0894 89° East 358 412 25,300 -1,020 Descending Los Angeles Center
07:33PM 32.7758 -113.9739 90° East 349 402 25,000 -180 Descending Los Angeles Center
07:34PM 32.7958 -113.8361 80° East 353 406 25,000  Level Los Angeles Center
07:36PM 32.8144 -113.7097 80° East 352 405 25,000  Level Albuquerque Center
07:37PM 32.8706 -113.6147 55° Northeast 354 407 25,000  Level Albuquerque Center
07:38PM 32.9358 -113.5267 49° Northeast 354 407 25,000 -600 Level Albuquerque Center
07:39PM 33.0014 -113.4383 48° Northeast 355 409 23,800 -1,500 Descending Albuquerque Center
07:40PM 33.0647 -113.3539 48° Northeast 346 398 22,000 -1,260 Descending Albuquerque Center
07:41PM 33.1381 -113.2533 49° Northeast 337 388 21,300 -1,380 Descending Albuquerque Center
07:42PM 33.1967 -113.1728 49° Northeast 326 375 19,200 -2,040 Descending Albuquerque Center
07:43PM 33.2547 -113.0942 49° Northeast 317 365 17,200 -1,080 Descending Albuquerque Center
07:44PM 33.2764 -112.9931 76° East 327 376 17,000 -300 Descending Albuquerque Center
07:45PM 33.2786 -112.8864 89° East 322 371 16,700 -1,080 Descending Albuquerque Center
07:46PM 33.2808 -112.7831 88° East 316 364 14,900 -900 Descending Albuquerque Center
07:47PM 33.2825 -112.6803 89° East 312 359 14,900 -540 Level Albuquerque Center
07:48PM 33.2872 -112.5664 87° East 309 356 13,900 -1,320 Descending Albuquerque Center
07:49PM 33.2894 -112.4583 89° East 320 368 12,300 -1,440 Descending Albuquerque Center
07:50PM 33.2919 -112.3536 88° East 320 368 11,000 -1,020 Descending Albuquerque Center
07:51PM 33.2978 -112.2586 86° East 302 348 10,300 -840 Descending Albuquerque Center
07:52PM 33.3050 -112.1678 85° East 284 327 9,300 -840 Descending Albuquerque Center
07:53PM 33.3142 -112.0775 83° East 278 320 8,700 -1,140 Descending Albuquerque Center
07:54PM 33.3422 -111.9686 73° East 287 330 7,000 -1,080 Descending Albuquerque Center
07:55PM 33.3464 -111.8881 86° East 256 295 6,500 -840 Descending Albuquerque Center
07:56PM 33.3747 -111.8431 53° Northeast 217 250 5,400 -1,320 Descending Albuquerque Center
07:57PM 33.4139 -111.8658 334° Northwest 203 234 3,900 -1,440 Descending Albuquerque Center
07:58PM 33.4289 -111.9133 291° West 171 197 2,500 -1,080 Descending Albuquerque Center
07:59PM 33.4314 -111.9611 274° West 155 178 1,800 -480 Descending Albuquerque Center
08:00PM 33.4317 -112.0092 270° West 153 176 1,600 -240 Descending Albuquerque Center